Terminal Aerodrome Forecast
Issued by NWS Sterling, VA

Current Version | Previous Version | Text Only | Print | Product List | Glossary Off
Versions: 1 2 3 4 5 6 7 8 9 10 11 12 13 14 15 16 17 18 19 20 21 22 23 24

000
FTUS41 KLWX 162042 AAB
TAFDCA
TAF AMD
KDCA 162042Z 1621/1724 32012G21KT P6SM BKN035 OVC050
     FM162200 29012G20KT P6SM BKN050
     FM170600 28010G18KT P6SM SCT060
     FM171400 27012G21KT P6SM BKN045
     FM171800 29015G24KT P6SM BKN050
     FM172200 28020G28KT P6SM OVC050=

USA.gov is the U.S. government's official web portal to all federal, state and local government web resources and services.